CYLW

Kelowna International Airport

Airport
ICAO code
CYLW
Summary
ICAO Region
NAM
ICAO Territory
Location

Kelowna, British Columbia,

Coordinates
49° 57' 7" N , 119° 23' 7" W
KCC
Airport CFIT
Altimeter Temperature Error Correction
Airport RE
Crosswind Landings
Metar
CYLW 240200Z AUTO 23019G25KT 9SM CLR 21/02 A2984 RMK SLP105 DENSITY ALT 2600FT

Description

International airport located at Kelowna, British Columbia, Canada.

Climatology

Semi-arid Steppe climate (Köppen climate classification BSk) - Little precipitation, hot summers and cold winters, sometimes with large changes in temperature in a 24 hour period.

Runways

Designator Length Width Surface Rops
16/34 2225 61 ASP Yes/Yes

Airport map

Aerial View

SKYbrary Partners:

Safety knowledge contributed by: